createdAt,value
2023-04-17T00:01:09.954Z,14.50
2023-04-17T00:03:38.005Z,14.50
2023-04-17T00:06:05.385Z,14.60
2023-04-17T00:08:33.941Z,14.60
2023-04-17T00:11:07.869Z,14.60
2023-04-17T00:13:35.693Z,14.40
2023-04-17T00:16:02.820Z,14.40
2023-04-17T00:18:29.670Z,14.10
2023-04-17T00:20:56.844Z,14.10
2023-04-17T00:23:23.892Z,13.90
2023-04-17T00:25:50.613Z,14.00
2023-04-17T00:28:17.295Z,13.90
2023-04-17T00:30:44.061Z,13.80
2023-04-17T00:33:10.729Z,13.90
2023-04-17T00:35:37.408Z,13.70
2023-04-17T00:38:04.260Z,13.70
2023-04-17T00:40:31.299Z,13.70
2023-04-17T00:43:04.381Z,13.80
2023-04-17T00:45:31.295Z,14.00
2023-04-17T00:47:59.144Z,14.20
2023-04-17T00:50:27.348Z,13.90
2023-04-17T00:52:54.536Z,13.70
2023-04-17T00:55:21.531Z,13.70
2023-04-17T00:57:51.039Z,13.60
2023-04-17T01:00:18.541Z,13.60
2023-04-17T01:02:46.679Z,13.70
2023-04-17T01:05:14.100Z,14.10
2023-04-17T01:07:41.983Z,14.30
2023-04-17T01:10:09.179Z,14.50
2023-04-17T01:12:36.631Z,14.60
2023-04-17T01:15:03.453Z,14.50
2023-04-17T01:17:30.425Z,14.30
2023-04-17T01:19:59.203Z,14.30
2023-04-17T01:22:25.983Z,14.30
2023-04-17T01:24:52.781Z,14.40
2023-04-17T01:27:22.620Z,14.50
2023-04-17T01:29:55.285Z,14.70
2023-04-17T01:32:22.062Z,14.60
2023-04-17T01:34:48.873Z,14.50
2023-04-17T01:37:15.580Z,14.40
2023-04-17T01:39:42.426Z,14.30
2023-04-17T01:42:09.453Z,14.30
2023-04-17T01:44:37.596Z,14.30
2023-04-17T01:47:04.469Z,14.40
2023-04-17T01:49:31.333Z,14.30
2023-04-17T01:51:58.072Z,14.40
2023-04-17T01:54:25.117Z,14.30
2023-04-17T01:56:51.878Z,14.30
2023-04-17T01:59:18.797Z,14.30
2023-04-17T02:01:45.644Z,13.90
2023-04-17T02:04:12.669Z,13.80
2023-04-17T02:06:39.407Z,13.90
2023-04-17T02:09:06.219Z,13.90
2023-04-17T02:11:33.138Z,13.60
2023-04-17T02:13:59.924Z,13.40
2023-04-17T02:16:27.072Z,13.20
2023-04-17T02:18:54.254Z,13.30
2023-04-17T02:21:21.620Z,13.40
2023-04-17T02:23:48.408Z,13.60
2023-04-17T02:26:16.010Z,13.60
2023-04-17T02:28:45.847Z,13.40
2023-04-17T02:31:12.710Z,13.50
2023-04-17T02:33:39.490Z,13.70
2023-04-17T02:36:06.383Z,13.90
2023-04-17T02:38:33.176Z,13.90
2023-04-17T02:41:00.132Z,13.50
2023-04-17T02:43:26.989Z,13.70
2023-04-17T02:45:53.809Z,13.90
2023-04-17T02:48:20.665Z,14.00
2023-04-17T02:50:47.500Z,14.00
2023-04-17T02:53:14.269Z,14.00
2023-04-17T02:55:41.232Z,14.00
2023-04-17T02:58:08.005Z,14.10
2023-04-17T03:00:34.836Z,13.90
2023-04-17T03:03:03.563Z,14.00
2023-04-17T03:05:30.665Z,14.10
2023-04-17T03:07:58.713Z,14.30
2023-04-17T03:10:25.559Z,14.40
2023-04-17T03:13:02.533Z,14.40
2023-04-17T03:15:29.380Z,14.30
2023-04-17T03:17:56.102Z,14.30
2023-04-17T03:20:22.811Z,14.40
2023-04-17T03:22:49.696Z,14.30
2023-04-17T03:25:16.542Z,14.20
2023-04-17T03:27:43.358Z,14.20
2023-04-17T03:30:10.524Z,14.10
2023-04-17T03:32:38.252Z,14.10
2023-04-17T03:35:05.387Z,13.90
2023-04-17T03:37:32.448Z,14.00
2023-04-17T03:39:59.130Z,14.00
2023-04-17T03:42:26.699Z,13.80
2023-04-17T03:44:53.725Z,13.90
2023-04-17T03:47:20.468Z,14.00
2023-04-17T03:49:47.182Z,14.20
2023-04-17T03:52:14.071Z,14.30
2023-04-17T03:54:41.026Z,14.40
2023-04-17T03:57:07.976Z,14.30
2023-04-17T03:59:34.815Z,14.20
2023-04-17T04:02:01.779Z,14.20
2023-04-17T04:04:28.851Z,14.10
2023-04-17T04:06:57.893Z,14.20
2023-04-17T04:09:27.668Z,14.10
2023-04-17T04:11:54.459Z,14.10
2023-04-17T04:14:21.355Z,14.00
2023-04-17T04:16:48.464Z,13.40
2023-04-17T04:19:15.424Z,13.20
2023-04-17T04:21:43.595Z,13.00
2023-04-17T04:24:15.438Z,12.90
2023-04-17T04:26:42.479Z,12.90
2023-04-17T04:29:09.905Z,12.90
2023-04-17T04:31:37.982Z,13.00
2023-04-17T04:34:06.068Z,12.80
2023-04-17T04:36:36.479Z,12.90
2023-04-17T04:39:06.827Z,13.30
2023-04-17T04:41:37.173Z,13.60
2023-04-17T04:44:04.011Z,13.80
2023-04-17T04:46:30.719Z,13.90
2023-04-17T04:48:57.465Z,13.90
2023-04-17T04:51:24.276Z,13.80
2023-04-17T04:53:50.976Z,13.90
2023-04-17T04:56:17.809Z,13.90
2023-04-17T04:58:44.557Z,13.90
2023-04-17T05:01:12.224Z,13.80
2023-04-17T05:03:39.296Z,14.00
2023-04-17T05:06:06.332Z,13.90
2023-04-17T05:08:33.496Z,13.90
2023-04-17T05:11:00.251Z,14.00
2023-04-17T05:13:27.039Z,14.10
2023-04-17T05:15:53.863Z,14.10
2023-04-17T05:18:20.809Z,14.10
2023-04-17T05:20:47.676Z,14.10
2023-04-17T05:23:14.436Z,14.00
2023-04-17T05:25:41.176Z,14.10
2023-04-17T05:28:07.882Z,14.20
2023-04-17T05:30:35.002Z,14.20
2023-04-17T05:33:02.028Z,14.10
2023-04-17T05:35:28.874Z,13.90
2023-04-17T05:37:56.158Z,13.90
2023-04-17T05:40:23.094Z,13.80
2023-04-17T05:42:49.906Z,13.80
2023-04-17T05:45:18.048Z,13.90
2023-04-17T05:47:44.974Z,14.00
2023-04-17T05:50:11.835Z,14.20
2023-04-17T05:52:39.848Z,14.20
2023-04-17T05:55:06.906Z,14.30
2023-04-17T05:57:33.723Z,14.20
2023-04-17T06:00:00.448Z,14.30
2023-04-17T06:02:27.595Z,14.30
2023-04-17T06:04:54.599Z,14.30
2023-04-17T06:07:21.650Z,14.20
2023-04-17T06:09:48.670Z,14.30
2023-04-17T06:12:16.410Z,14.40
2023-04-17T06:14:43.846Z,14.50
2023-04-17T06:17:12.448Z,14.30
2023-04-17T06:19:39.732Z,14.20
2023-04-17T06:22:06.538Z,14.10
2023-04-17T06:24:33.316Z,14.20
2023-04-17T06:27:00.073Z,14.40
2023-04-17T06:29:26.779Z,14.40
2023-04-17T06:31:53.554Z,14.50
2023-04-17T06:34:20.832Z,14.40
2023-04-17T06:36:47.836Z,14.50
2023-04-17T06:39:14.720Z,14.40
2023-04-17T06:41:41.430Z,14.40
2023-04-17T06:44:08.165Z,14.40
2023-04-17T06:46:35.103Z,14.30
2023-04-17T06:49:02.765Z,14.50
2023-04-17T06:51:29.506Z,14.50
2023-04-17T06:53:56.353Z,14.50
2023-04-17T06:56:24.257Z,14.60
2023-04-17T06:58:51.450Z,14.60
2023-04-17T07:01:18.265Z,14.60
2023-04-17T07:03:45.356Z,14.60
2023-04-17T07:06:12.430Z,14.60
2023-04-17T07:08:39.404Z,14.50
2023-04-17T07:11:06.262Z,14.50
2023-04-17T07:13:33.301Z,14.50
2023-04-17T07:16:01.645Z,14.50
2023-04-17T07:18:31.345Z,14.40
2023-04-17T07:20:58.097Z,14.50
2023-04-17T07:23:25.030Z,14.60
2023-04-17T07:25:51.831Z,14.60
2023-04-17T07:28:18.681Z,14.60
2023-04-17T07:30:45.980Z,14.60
2023-04-17T07:33:12.801Z,14.60
2023-04-17T07:35:39.668Z,14.60
2023-04-17T07:38:06.541Z,14.50
2023-04-17T07:40:35.753Z,14.40
2023-04-17T07:43:02.429Z,14.30
2023-04-17T07:45:29.251Z,14.30
2023-04-17T07:47:56.022Z,14.30
2023-04-17T07:50:22.877Z,14.30
2023-04-17T07:52:49.672Z,14.30
2023-04-17T07:55:16.797Z,14.30
2023-04-17T07:57:43.607Z,14.40
2023-04-17T08:00:12.567Z,14.40
2023-04-17T08:02:39.429Z,14.40
2023-04-17T08:05:07.147Z,14.40
2023-04-17T08:07:34.049Z,14.40
2023-04-17T08:10:00.835Z,14.40
2023-04-17T08:12:27.594Z,14.50
2023-04-17T08:14:54.495Z,14.50
2023-04-17T08:17:23.321Z,14.50
2023-04-17T08:19:50.903Z,14.50
2023-04-17T08:22:19.744Z,14.50
2023-04-17T08:24:46.895Z,14.50
2023-04-17T08:27:15.131Z,14.60
2023-04-17T08:29:43.409Z,14.60
2023-04-17T08:32:14.163Z,14.60
2023-04-17T08:34:42.619Z,14.60
2023-04-17T08:37:09.442Z,14.60
2023-04-17T08:39:36.184Z,14.70
2023-04-17T08:42:06.801Z,14.80
2023-04-17T08:44:33.800Z,14.90
2023-04-17T08:47:00.832Z,15.00
2023-04-17T08:49:31.139Z,14.90
2023-04-17T08:51:57.978Z,15.00
2023-04-17T08:54:24.649Z,15.00
2023-04-17T08:56:51.322Z,15.00
2023-04-17T08:59:18.070Z,15.10
2023-04-17T09:02:04.673Z,15.10
2023-04-17T09:04:49.597Z,15.10
2023-04-17T09:07:16.707Z,15.20
2023-04-17T09:09:53.280Z,15.20
2023-04-17T09:12:20.765Z,15.20
2023-04-17T09:14:47.557Z,15.30
2023-04-17T09:17:17.365Z,15.30
2023-04-17T09:20:06.545Z,15.30
2023-04-17T09:22:34.259Z,15.40
2023-04-17T09:25:01.620Z,15.40
2023-04-17T09:27:29.661Z,15.30
2023-04-17T09:29:57.561Z,15.30
2023-04-17T09:32:25.235Z,15.30
2023-04-17T09:34:53.164Z,15.30
2023-04-17T09:37:21.025Z,15.30
2023-04-17T09:40:00.730Z,15.40
2023-04-17T09:42:28.495Z,15.30
2023-04-17T09:44:55.365Z,15.30
2023-04-17T09:47:22.885Z,15.30
2023-04-17T09:49:52.544Z,15.30
2023-04-17T09:52:19.959Z,15.20
2023-04-17T09:54:47.529Z,15.20
2023-04-17T09:57:14.310Z,15.30
2023-04-17T09:59:41.689Z,15.30
2023-04-17T10:02:12.559Z,15.20
2023-04-17T10:04:40.297Z,15.20
2023-04-17T10:07:07.230Z,15.20
2023-04-17T10:09:33.886Z,15.30
2023-04-17T10:12:02.226Z,15.20
2023-04-17T10:14:33.943Z,15.20
2023-04-17T10:17:20.686Z,15.20
2023-04-17T10:19:47.452Z,15.20
2023-04-17T10:22:14.150Z,15.20
2023-04-17T10:24:41.239Z,15.20
2023-04-17T10:27:26.446Z,15.20
2023-04-17T10:29:54.299Z,15.20
2023-04-17T10:32:21.752Z,15.10
2023-04-17T10:34:48.625Z,15.10
2023-04-17T10:37:16.189Z,15.10
2023-04-17T10:39:55.613Z,15.10
2023-04-17T10:42:23.275Z,15.10
2023-04-17T10:44:50.295Z,15.10
2023-04-17T10:47:20.640Z,15.10
2023-04-17T10:49:51.623Z,15.20
2023-04-17T10:52:34.690Z,15.20
2023-04-17T10:55:14.489Z,15.20
2023-04-17T10:57:50.181Z,15.20
2023-04-17T11:00:17.326Z,15.20
2023-04-17T11:02:50.308Z,15.20
2023-04-17T11:05:17.477Z,15.20
2023-04-17T11:07:44.719Z,15.20
2023-04-17T11:10:12.408Z,15.20
2023-04-17T11:12:39.424Z,15.20
2023-04-17T11:15:06.436Z,15.20
2023-04-17T11:17:33.353Z,15.10
2023-04-17T11:20:00.362Z,15.20
2023-04-17T11:22:33.822Z,15.10
2023-04-17T11:25:00.749Z,15.00
2023-04-17T11:27:27.649Z,15.10
2023-04-17T11:29:54.542Z,15.10
2023-04-17T11:32:21.475Z,15.10
2023-04-17T11:34:48.603Z,15.10
2023-04-17T11:37:15.458Z,15.10
2023-04-17T11:39:42.750Z,15.10
2023-04-17T11:42:09.493Z,15.00
2023-04-17T11:44:36.158Z,15.10
2023-04-17T11:47:04.062Z,15.00
2023-04-17T11:49:38.055Z,15.00
2023-04-17T11:52:05.228Z,15.10
2023-04-17T11:54:37.247Z,15.10
2023-04-17T11:57:11.327Z,15.00
2023-04-17T11:59:38.640Z,15.00
2023-04-17T12:02:07.257Z,15.00
2023-04-17T12:04:35.366Z,15.10
2023-04-17T12:07:03.199Z,15.10
2023-04-17T12:09:31.924Z,15.10
2023-04-17T12:11:59.286Z,15.20
2023-04-17T12:14:26.711Z,15.10
2023-04-17T12:16:53.693Z,15.10
2023-04-17T12:19:20.485Z,15.10
2023-04-17T12:21:50.071Z,15.00
2023-04-17T12:24:18.200Z,15.00
2023-04-17T12:26:48.401Z,15.10
2023-04-17T12:29:15.605Z,15.00
2023-04-17T12:31:42.749Z,15.00
2023-04-17T12:34:09.560Z,15.10
2023-04-17T12:36:36.512Z,15.20
2023-04-17T12:39:03.815Z,15.10
2023-04-17T12:41:31.978Z,15.10
2023-04-17T12:44:01.757Z,15.00
2023-04-17T12:46:28.775Z,15.10
2023-04-17T12:48:58.849Z,15.10
2023-04-17T12:51:27.943Z,15.00
2023-04-17T12:53:58.127Z,15.10
2023-04-17T12:56:25.167Z,15.10
2023-04-17T12:58:52.051Z,15.10
2023-04-17T13:01:18.836Z,15.10
2023-04-17T13:03:45.711Z,15.00
2023-04-17T13:06:13.808Z,15.00
2023-04-17T13:08:40.575Z,15.10
2023-04-17T13:11:07.574Z,15.20
2023-04-17T13:13:34.330Z,15.30
2023-04-17T13:16:01.402Z,15.20
2023-04-17T13:18:28.405Z,15.20
2023-04-17T13:20:55.992Z,15.30
2023-04-17T13:23:22.852Z,15.40
2023-04-17T13:25:49.690Z,15.40
2023-04-17T13:28:16.427Z,15.40
2023-04-17T13:30:43.172Z,15.50
2023-04-17T13:33:10.073Z,15.40
2023-04-17T13:35:36.840Z,15.50
2023-04-17T13:38:03.951Z,15.60
2023-04-17T13:40:31.325Z,15.60
2023-04-17T13:42:58.527Z,15.60
2023-04-17T13:45:25.371Z,15.70
2023-04-17T13:47:52.133Z,15.80
2023-04-17T13:50:18.915Z,15.80
2023-04-17T13:52:45.678Z,15.90
2023-04-17T13:55:14.785Z,15.80
2023-04-17T13:57:41.581Z,15.80
2023-04-17T14:00:08.798Z,15.80
2023-04-17T14:02:35.915Z,15.80
2023-04-17T14:05:03.127Z,15.90
2023-04-17T14:07:30.374Z,15.90
2023-04-17T14:09:57.294Z,15.90
2023-04-17T14:12:24.285Z,15.80
2023-04-17T14:14:50.984Z,15.70
2023-04-17T14:17:18.242Z,15.80
2023-04-17T14:19:44.946Z,15.80
2023-04-17T14:22:11.646Z,15.80
2023-04-17T14:24:38.460Z,15.80
2023-04-17T14:27:05.370Z,15.80
2023-04-17T14:29:32.195Z,15.80
2023-04-17T14:31:59.052Z,15.90
2023-04-17T14:34:25.763Z,15.90
2023-04-17T14:36:52.871Z,15.90
2023-04-17T14:39:20.072Z,15.80
2023-04-17T14:41:46.980Z,15.80
2023-04-17T14:44:14.084Z,15.80
2023-04-17T14:46:41.252Z,15.90
2023-04-17T14:49:08.645Z,15.80
2023-04-17T14:51:35.429Z,15.70
2023-04-17T14:54:02.481Z,15.80
2023-04-17T14:56:29.361Z,15.70
2023-04-17T14:58:56.209Z,15.70
2023-04-17T15:01:23.091Z,15.60
2023-04-17T15:03:50.139Z,15.60
2023-04-17T15:06:18.943Z,15.70
2023-04-17T15:08:46.392Z,15.80
2023-04-17T15:11:13.340Z,15.80
2023-04-17T15:13:40.623Z,15.80
2023-04-17T15:16:09.406Z,15.80
2023-04-17T15:18:36.433Z,15.70
2023-04-17T15:21:03.247Z,15.60
2023-04-17T15:23:30.028Z,15.70
2023-04-17T15:25:57.791Z,15.70
2023-04-17T15:28:25.349Z,15.70
2023-04-17T15:30:52.089Z,15.80
2023-04-17T15:33:19.317Z,15.80
2023-04-17T15:35:46.222Z,15.80
2023-04-17T15:38:13.240Z,15.80
2023-04-17T15:40:39.936Z,15.80
2023-04-17T15:43:06.694Z,15.80
2023-04-17T15:45:33.443Z,15.90
2023-04-17T15:48:01.668Z,15.90
2023-04-17T15:50:28.659Z,15.90
2023-04-17T15:52:55.473Z,15.90
2023-04-17T15:55:22.183Z,15.90
2023-04-17T15:57:48.927Z,15.80
2023-04-17T16:00:16.181Z,15.80
2023-04-17T16:02:43.027Z,15.80
2023-04-17T16:05:09.936Z,15.90
2023-04-17T16:07:36.694Z,16.00
2023-04-17T16:10:03.461Z,15.90
2023-04-17T16:12:30.178Z,15.80
2023-04-17T16:14:57.003Z,15.70
2023-04-17T16:17:23.693Z,15.80
2023-04-17T16:19:50.932Z,15.80
2023-04-17T16:22:18.352Z,15.80
2023-04-17T16:24:45.169Z,15.70
2023-04-17T16:27:11.852Z,15.70
2023-04-17T16:29:38.576Z,15.80
2023-04-17T16:32:05.369Z,15.80
2023-04-17T16:34:32.079Z,15.80
2023-04-17T16:36:58.868Z,15.80
2023-04-17T16:39:25.700Z,15.80
2023-04-17T16:41:52.916Z,15.80
2023-04-17T16:44:19.826Z,15.70
2023-04-17T16:47:05.519Z,15.60
2023-04-17T16:49:33.376Z,15.50
2023-04-17T16:52:00.139Z,15.50
2023-04-17T16:54:26.867Z,15.50
2023-04-17T16:56:53.691Z,15.40
2023-04-17T16:59:20.424Z,15.40
2023-04-17T17:01:49.594Z,15.40
2023-04-17T17:04:16.546Z,15.40
2023-04-17T17:06:43.441Z,15.40
2023-04-17T17:09:10.446Z,15.40
2023-04-17T17:11:37.421Z,15.40
2023-04-17T17:14:04.113Z,15.40
2023-04-17T17:16:30.949Z,15.40
2023-04-17T17:18:57.794Z,15.40
2023-04-17T17:21:24.490Z,15.40
2023-04-17T17:23:51.315Z,15.40
2023-04-17T17:26:18.269Z,15.30
2023-04-17T17:28:50.931Z,15.30
2023-04-17T17:31:17.921Z,15.30
2023-04-17T17:33:44.844Z,15.30
2023-04-17T17:36:12.023Z,15.30
2023-04-17T17:38:39.053Z,15.30
2023-04-17T17:41:05.950Z,15.30
2023-04-17T17:43:32.656Z,15.30
2023-04-17T17:45:59.428Z,15.30
2023-04-17T17:48:26.139Z,15.20
2023-04-17T17:50:57.329Z,15.20
2023-04-17T17:53:26.695Z,15.20
2023-04-17T17:55:55.261Z,15.20
2023-04-17T17:58:22.324Z,15.20
2023-04-17T18:00:49.603Z,15.20
2023-04-17T18:03:17.001Z,15.20
2023-04-17T18:05:44.441Z,15.20
2023-04-17T18:08:11.353Z,15.20
2023-04-17T18:10:38.675Z,15.20
2023-04-17T18:13:05.520Z,15.30
2023-04-17T18:15:32.488Z,15.20
2023-04-17T18:17:59.289Z,15.20
2023-04-17T18:20:26.182Z,15.20
2023-04-17T18:22:53.103Z,15.20
2023-04-17T18:25:20.002Z,15.20
2023-04-17T18:27:46.747Z,15.20
2023-04-17T18:30:14.262Z,15.20
2023-04-17T18:32:41.059Z,15.20
2023-04-17T18:35:07.964Z,15.30
2023-04-17T18:37:34.712Z,15.30
2023-04-17T18:40:01.640Z,15.30
2023-04-17T18:42:28.402Z,15.20
2023-04-17T18:44:55.154Z,15.20
2023-04-17T18:47:21.842Z,15.20
2023-04-17T18:49:51.472Z,15.20
2023-04-17T18:52:18.354Z,15.20
2023-04-17T18:54:45.198Z,15.20
2023-04-17T18:57:11.941Z,15.30
2023-04-17T18:59:38.734Z,15.20
2023-04-17T19:02:05.527Z,15.20
2023-04-17T19:04:32.324Z,15.20
2023-04-17T19:06:59.251Z,15.20
2023-04-17T19:09:25.928Z,15.20
2023-04-17T19:11:52.908Z,15.20
2023-04-17T19:14:19.728Z,15.20
2023-04-17T19:16:47.374Z,15.20
2023-04-17T19:19:15.528Z,15.20
2023-04-17T19:21:42.489Z,15.20
2023-04-17T19:24:09.352Z,15.20
2023-04-17T19:26:36.893Z,15.20
2023-04-17T19:29:04.978Z,15.20
2023-04-17T19:31:32.448Z,15.20
2023-04-17T19:33:59.341Z,15.20
2023-04-17T19:36:27.561Z,15.20
2023-04-17T19:38:55.547Z,15.20
2023-04-17T19:41:24.257Z,15.20
2023-04-17T19:43:51.522Z,15.20
2023-04-17T19:46:18.904Z,15.20
2023-04-17T19:48:46.135Z,15.20
2023-04-17T19:51:14.591Z,15.20
2023-04-17T19:53:42.933Z,15.20
2023-04-17T19:56:12.657Z,15.20
2023-04-17T19:58:39.954Z,15.20
2023-04-17T20:01:06.729Z,15.20
2023-04-17T20:03:34.387Z,15.20
2023-04-17T20:06:04.387Z,15.10
2023-04-17T20:08:31.868Z,15.20
2023-04-17T20:10:58.647Z,15.10
2023-04-17T20:13:25.858Z,15.20
2023-04-17T20:15:52.605Z,15.20
2023-04-17T20:18:20.500Z,15.20
2023-04-17T20:20:48.010Z,15.10
2023-04-17T20:23:15.605Z,15.20
2023-04-17T20:25:42.549Z,15.10
2023-04-17T20:28:10.350Z,15.20
2023-04-17T20:30:37.760Z,15.10
2023-04-17T20:33:04.643Z,14.90
2023-04-17T20:35:31.543Z,14.80
2023-04-17T20:37:58.331Z,14.80
2023-04-17T20:40:25.996Z,14.70
2023-04-17T20:42:53.375Z,14.70
2023-04-17T20:45:20.391Z,14.70
2023-04-17T20:47:56.636Z,14.80
2023-04-17T20:50:24.539Z,14.80
2023-04-17T20:52:51.286Z,14.70
2023-04-17T20:55:19.892Z,14.80
2023-04-17T20:57:47.227Z,14.80
2023-04-17T21:00:14.103Z,14.80
2023-04-17T21:02:41.045Z,14.80
2023-04-17T21:05:08.315Z,14.70
2023-04-17T21:07:36.045Z,14.70
2023-04-17T21:10:03.137Z,14.90
2023-04-17T21:12:30.337Z,14.90
2023-04-17T21:14:57.212Z,15.00
2023-04-17T21:17:24.158Z,14.90
2023-04-17T21:19:50.969Z,14.80
2023-04-17T21:22:17.758Z,14.70
2023-04-17T21:24:44.579Z,14.70
2023-04-17T21:27:11.468Z,14.70
2023-04-17T21:29:38.168Z,14.70
2023-04-17T21:32:05.303Z,14.80
2023-04-17T21:34:32.218Z,14.80
2023-04-17T21:36:59.731Z,14.80
2023-04-17T21:39:26.681Z,14.90
2023-04-17T21:41:53.614Z,14.80
2023-04-17T21:44:20.423Z,14.70
2023-04-17T21:46:47.266Z,14.70
2023-04-17T21:49:17.373Z,14.70
2023-04-17T21:51:44.110Z,14.70
2023-04-17T21:54:11.021Z,14.80
2023-04-17T21:56:41.023Z,14.80
2023-04-17T21:59:07.775Z,14.90
2023-04-17T22:01:34.712Z,14.80
2023-04-17T22:04:01.650Z,14.90
2023-04-17T22:06:28.451Z,14.90
2023-04-17T22:08:55.339Z,14.90
2023-04-17T22:11:23.220Z,14.80
2023-04-17T22:13:49.956Z,14.90
2023-04-17T22:16:16.643Z,14.90
2023-04-17T22:18:43.480Z,14.80
2023-04-17T22:21:47.797Z,14.70
2023-04-17T22:24:33.114Z,14.70
2023-04-17T22:26:59.816Z,14.70
2023-04-17T22:29:26.552Z,14.80
2023-04-17T22:32:31.143Z,14.90
2023-04-17T22:34:57.857Z,14.80
2023-04-17T22:37:24.520Z,15.00
2023-04-17T22:40:10.123Z,14.90
2023-04-17T22:42:55.610Z,14.90
2023-04-17T22:45:22.392Z,14.80
2023-04-17T22:47:49.141Z,14.80
2023-04-17T22:50:17.387Z,14.70
2023-04-17T22:52:44.269Z,14.80
2023-04-17T22:55:11.247Z,14.90
2023-04-17T22:57:38.036Z,14.90
2023-04-17T23:00:06.477Z,14.80
2023-04-17T23:02:33.272Z,14.90
2023-04-17T23:05:00.305Z,14.80
2023-04-17T23:07:27.420Z,14.80
2023-04-17T23:09:54.138Z,14.80
2023-04-17T23:12:21.067Z,14.80
2023-04-17T23:14:48.477Z,14.80
2023-04-17T23:17:15.228Z,14.80
2023-04-17T23:19:42.223Z,14.80
2023-04-17T23:22:09.490Z,14.80
2023-04-17T23:24:36.372Z,14.90
2023-04-17T23:27:03.070Z,15.00
2023-04-17T23:29:30.009Z,14.90
2023-04-17T23:31:56.896Z,14.90
2023-04-17T23:34:23.728Z,14.90
2023-04-17T23:36:50.810Z,14.80
2023-04-17T23:39:17.725Z,14.90
2023-04-17T23:41:44.576Z,14.90
2023-04-17T23:44:11.746Z,14.90
2023-04-17T23:46:38.780Z,14.90
2023-04-17T23:49:05.659Z,14.70
2023-04-17T23:51:32.531Z,14.60
2023-04-17T23:53:59.540Z,14.70
2023-04-17T23:56:29.490Z,14.70
2023-04-17T23:58:56.681Z,14.80
